Time;durP1;ratioP1;P1;durP2;ratioP2;P2;SDS_P1;SDS_P2;PMS_P1;PMS_P2;Temp;Humidity;BMP_temperature;BMP_pressure;BME280_temperature;BME280_humidity;BME280_pressure;Samples;Min_cycle;Max_cycle;Signal;HPM_P1;HPM_P2
2023/12/12 00:01:52;;;;;;;15.57;4.00;;;;;;;11.70;70.90;100070.28;4985728;28;20213;-70
2023/12/12 01:24:11;;;;;;;15.70;3.43;;;;;;;10.53;75.84;100034.97;4887454;29;20378;-69
2023/12/12 01:27:46;;;;;;;19.47;3.80;;;;;;;10.56;75.94;100032.81;4905856;29;20216;-69
2023/12/12 03:01:48;;;;;;;;;;;;;;;;;;;;;
2023/12/12 03:12:44;;;;;;;23.00;3.67;;;;;;;10.44;75.66;99985.56;4848555;29;20266;-71
2023/12/12 03:30:47;;;;;;;;;;;;;;;;;;;;;
2023/12/12 03:38:12;;;;;;;22.40;4.27;;;;;;;10.32;75.76;99989.47;4814402;29;20219;-70
2023/12/12 03:53:06;;;;;;;19.17;3.77;;;;;;;10.25;76.64;99991.09;4826709;29;20223;-68
2023/12/12 04:07:57;;;;;;;;;;;;;;;;;;;;;
2023/12/12 04:11:51;;;;;;;21.27;4.60;;;;;;;10.33;75.93;99968.09;4796868;29;20234;-68
2023/12/12 04:41:41;;;;;;;22.63;4.50;;;;;;;10.20;76.74;99932.44;4797556;29;20804;-68
2023/12/12 05:35:57;;;;;;;18.47;3.53;;;;;;;10.08;77.56;99935.34;5017104;28;20671;-70
2023/12/12 06:12:12;;;;;;;16.63;4.10;;;;;;;9.73;80.51;99901.88;4893143;29;20272;-73
2023/12/12 06:30:56;;;;;;;18.90;3.87;;;;;;;10.03;79.41;99881.16;4885723;29;20324;-69
2023/12/12 06:37:24;;;;;;;22.23;5.40;;;;;;;10.02;79.66;99868.91;4898578;29;20241;-70
2023/12/12 06:43:49;;;;;;;19.43;4.90;;;;;;;9.95;80.43;99859.94;4991789;28;20228;-70
2023/12/12 06:46:37;;;;;;;16.67;4.20;;;;;;;9.89;80.64;99871.16;5041200;28;20217;-71
2023/12/12 06:50:19;;;;;;;19.60;4.77;;;;;;;9.87;80.96;99870.47;5063413;28;20207;-69
2023/12/12 06:52:51;;;;;;;14.70;4.53;;;;;;;9.85;80.96;99861.88;5052120;28;20204;-69
2023/12/12 07:03:13;;;;;;;17.10;4.67;;;;;;;9.67;81.06;99873.38;5061515;28;20212;-70
2023/12/12 07:21:39;;;;;;;22.07;4.90;;;;;;;9.66;81.74;99868.25;4904810;28;20206;-70
2023/12/12 07:36:34;;;;;;;23.73;5.00;;;;;;;9.85;80.56;99840.72;4878041;29;20236;-72
2023/12/12 09:02:07;;;;;;;21.03;4.83;;;;;;;10.52;82.52;99792.06;4954280;28;20206;-69
2023/12/12 09:09:31;;;;;;;;;;;;;;;;;;;;;
2023/12/12 09:12:26;;;;;;;19.17;4.90;;;;;;;10.59;82.87;99793.06;4935230;28;20220;-69
2023/12/12 09:49:01;;;;;;;23.50;9.10;;;;;;;10.54;86.72;99721.19;4939448;28;20219;-70
2023/12/12 09:56:13;;;;;;;27.50;7.03;;;;;;;10.55;87.38;99720.19;4904151;28;20351;-73
2023/12/12 10:26:27;;;;;;;19.73;7.47;;;;;;;10.94;88.05;99635.41;4827986;29;20238;-66
2023/12/12 10:29:00;;;;;;;20.23;8.20;;;;;;;11.00;88.12;99636.53;4830152;29;20675;-71
2023/12/12 10:31:29;;;;;;;22.70;8.27;;;;;;;11.07;87.76;99629.59;4864000;29;20219;-69
2023/12/12 10:34:27;;;;;;;19.60;8.60;;;;;;;11.13;87.60;99618.28;4890821;29;20223;-69
2023/12/12 10:37:21;;;;;;;20.63;8.33;;;;;;;11.17;86.99;99625.69;5048259;28;20626;-69
2023/12/12 10:43:46;;;;;;;22.13;8.40;;;;;;;11.26;87.45;99610.56;5055967;28;20318;-68
2023/12/12 10:49:51;;;;;;;28.23;10.90;;;;;;;11.25;88.90;99604.47;5063024;28;20213;-69
2023/12/12 10:52:32;;;;;;;25.73;11.40;;;;;;;11.27;89.31;99605.09;5067354;28;20602;-69
2023/12/12 10:56:05;;;;;;;22.70;9.97;;;;;;;11.27;89.31;99591.81;5043141;28;20217;-68
2023/12/12 10:59:36;;;;;;;22.43;9.73;;;;;;;11.27;89.65;99580.38;4936253;28;20216;-69
2023/12/12 11:17:00;;;;;;;21.10;9.43;;;;;;;11.39;88.68;99541.84;5000961;28;20217;-69
2023/12/12 11:19:29;;;;;;;24.80;9.77;;;;;;;11.43;88.67;99537.00;5061972;28;21072;-71
2023/12/12 11:22:52;;;;;;;19.10;8.97;;;;;;;11.47;88.19;99543.59;5064907;28;20213;-71
2023/12/12 11:32:07;;;;;;;25.73;11.70;;;;;;;11.38;88.79;99526.91;5064281;28;20215;-69
2023/12/12 11:38:34;;;;;;;20.27;10.13;;;;;;;11.36;89.10;99520.94;4950435;28;20643;-69
2023/12/12 11:47:51;;;;;;;22.03;11.67;;;;;;;11.36;89.73;99506.84;4916757;28;20236;-68
2023/12/12 11:50:53;;;;;;;21.53;10.97;;;;;;;11.27;89.84;99500.75;4949469;28;20542;-68
2023/12/12 11:54:06;;;;;;;19.20;10.07;;;;;;;11.23;90.71;99510.09;4959039;28;20237;-69
2023/12/12 12:14:49;;;;;;;11.73;5.40;;;;;;;10.81;94.33;99423.81;5062056;28;20292;-69
2023/12/12 12:17:48;;;;;;;12.47;4.93;;;;;;;10.69;95.79;99422.53;5053283;28;20323;-69
2023/12/12 12:28:22;;;;;;;16.27;7.00;;;;;;;11.00;96.15;99408.41;5063466;28;20210;-69
2023/12/12 12:35:56;;;;;;;13.97;4.87;;;;;;;11.62;92.55;99430.31;4912936;28;20223;-69
2023/12/12 12:42:39;;;;;;;13.40;6.00;;;;;;;11.83;90.33;99441.13;4901817;29;20295;-69
2023/12/12 12:45:32;;;;;;;11.37;6.20;;;;;;;11.90;90.39;99443.88;4926632;29;20211;-69
2023/12/12 12:56:08;;;;;;;14.67;6.33;;;;;;;12.00;88.46;99418.69;4873314;29;20227;-68
2023/12/12 12:59:26;;;;;;;13.40;6.27;;;;;;;12.00;88.61;99412.56;4902161;29;20390;-69
2023/12/12 13:16:23;;;;;;;16.77;6.50;;;;;;;11.86;89.17;99379.66;5036703;28;20683;-68
2023/12/12 13:30:18;;;;;;;15.00;5.60;;;;;;;12.01;88.61;99367.22;5022177;28;20211;-70
2023/12/12 13:33:19;;;;;;;15.50;6.77;;;;;;;11.92;89.16;99365.66;4997904;28;20221;-70
2023/12/12 13:54:31;;;;;;;12.43;5.90;;;;;;;11.50;94.78;99360.09;4899522;29;20204;-70
2023/12/12 14:22:33;;;;;;;12.60;5.97;;;;;;;11.51;96.20;99341.34;4749808;29;20213;-73
2023/12/12 15:36:17;;;;;;;18.20;10.40;;;;;;;11.18;100.00;99258.53;5034146;28;20666;-69
2023/12/12 15:39:23;;;;;;;18.73;10.80;;;;;;;11.16;100.00;99252.63;5064753;28;20700;-69
2023/12/12 16:07:59;;;;;;;16.60;9.83;;;;;;;11.56;97.38;99234.59;5023407;28;20219;-71
2023/12/12 16:11:07;;;;;;;17.17;10.33;;;;;;;11.62;96.74;99236.50;5022724;28;20209;-72
2023/12/12 16:25:38;;;;;;;27.07;12.27;;;;;;;11.36;98.38;99201.63;4916019;29;20257;-71
2023/12/12 16:51:35;;;;;;;25.50;12.03;;;;;;;11.32;100.00;99194.06;4796714;29;20920;-69
2023/12/12 17:06:01;;;;;;;29.83;12.97;;;;;;;11.24;100.00;99178.25;4976329;28;20252;-68
2023/12/12 17:09:28;;;;;;;36.37;15.13;;;;;;;11.33;100.00;99181.63;4985569;28;20574;-70
2023/12/12 18:04:18;;;;;;;29.97;15.87;;;;;;;11.34;100.00;99124.06;4817989;29;20241;-70
2023/12/12 18:07:37;;;;;;;28.23;15.77;;;;;;;11.25;100.00;99132.13;4926245;28;20206;-68
2023/12/12 18:10:30;;;;;;;31.17;16.43;;;;;;;11.26;100.00;99127.63;4968511;28;20220;-69
2023/12/12 18:14:09;;;;;;;35.07;17.43;;;;;;;11.23;100.00;99122.69;4974540;28;20213;-71
2023/12/12 18:16:43;;;;;;;24.03;14.07;;;;;;;11.16;100.00;99119.13;4979319;28;20201;-69
2023/12/12 18:31:29;;;;;;;29.93;15.50;;;;;;;11.21;100.00;99098.16;5035401;28;20274;-68
2023/12/12 18:49:44;;;;;;;26.37;15.17;;;;;;;11.40;100.00;99105.56;4918037;29;20303;-68
2023/12/12 19:06:23;;;;;;;20.73;13.50;;;;;;;11.66;100.00;99108.50;4937469;28;20270;-73
2023/12/12 19:12:40;;;;;;;20.63;13.37;;;;;;;11.61;100.00;99079.03;4914004;28;20216;-70
2023/12/12 19:19:52;;;;;;;22.23;12.90;;;;;;;11.70;100.00;99072.59;4984966;28;20369;-69
2023/12/12 19:40:34;;;;;;;20.63;13.87;;;;;;;11.74;100.00;99094.28;4839374;29;20244;-69
2023/12/12 19:46:17;;;;;;;18.17;12.60;;;;;;;11.79;100.00;99096.38;5058484;28;20230;-67
2023/12/12 19:48:46;;;;;;;20.43;13.13;;;;;;;11.86;100.00;99087.50;5062464;28;20214;-68
2023/12/12 19:51:18;;;;;;;17.50;12.40;;;;;;;11.89;100.00;99096.91;5064381;28;20207;-69
2023/12/12 19:54:04;;;;;;;18.00;11.97;;;;;;;11.89;100.00;99105.69;5057847;28;20214;-67
2023/12/12 19:56:32;;;;;;;17.37;11.00;;;;;;;11.86;100.00;99119.38;5060757;28;20253;-72
2023/12/12 19:58:59;;;;;;;15.77;10.10;;;;;;;11.84;100.00;99141.81;5060886;28;20259;-70
2023/12/12 20:01:27;;;;;;;16.40;10.93;;;;;;;11.84;100.00;99147.94;5061768;28;20262;-67
2023/12/12 20:03:55;;;;;;;16.87;11.13;;;;;;;11.86;100.00;99145.13;5061504;28;20566;-67
2023/12/12 20:06:23;;;;;;;14.07;10.17;;;;;;;11.86;100.00;99145.13;5058847;28;20203;-67
2023/12/12 20:08:51;;;;;;;15.13;8.03;;;;;;;11.78;100.00;99137.25;5064416;28;20211;-68
2023/12/12 20:11:20;;;;;;;10.50;7.40;;;;;;;11.78;100.00;99131.94;5062559;28;20300;-66
2023/12/12 20:13:49;;;;;;;10.80;6.20;;;;;;;11.77;100.00;99125.81;5062232;28;20275;-66
2023/12/12 20:16:19;;;;;;;9.30;5.87;;;;;;;11.82;100.00;99114.63;5063744;28;20253;-67
2023/12/12 20:18:47;;;;;;;8.23;5.13;;;;;;;11.91;100.00;99105.50;5063724;28;20817;-73
2023/12/12 20:21:20;;;;;;;9.60;4.40;;;;;;;11.97;100.00;99083.50;5065170;28;20332;-69
2023/12/12 20:23:49;;;;;;;5.20;2.90;;;;;;;11.96;99.78;99066.72;5065824;28;20196;-69
2023/12/12 20:26:17;;;;;;;7.13;3.43;;;;;;;11.96;99.41;99071.25;5064222;28;20256;-67
2023/12/12 20:28:47;;;;;;;7.40;2.93;;;;;;;12.00;98.71;99067.19;5064307;28;20222;-66
2023/12/12 20:31:16;;;;;;;5.63;2.50;;;;;;;11.99;97.52;99081.47;5062419;28;20273;-66
2023/12/12 20:33:44;;;;;;;5.97;2.40;;;;;;;11.98;96.72;99085.97;5060719;28;20318;-67
2023/12/12 20:36:13;;;;;;;3.53;1.90;;;;;;;11.96;95.71;99097.81;5059052;28;20512;-67
2023/12/12 20:38:41;;;;;;;5.60;2.30;;;;;;;11.97;95.53;99088.81;5060300;28;20211;-68
2023/12/12 20:41:11;;;;;;;6.00;2.10;;;;;;;11.98;95.31;99080.66;5062079;28;20219;-65
2023/12/12 20:43:39;;;;;;;6.47;1.43;;;;;;;12.02;94.90;99075.78;5063950;28;20224;-66
2023/12/12 20:46:08;;;;;;;4.97;1.80;;;;;;;12.03;94.37;99066.81;5062846;28;20607;-66
2023/12/12 20:48:36;;;;;;;3.53;1.60;;;;;;;12.02;93.82;99057.19;5061889;28;20200;-68
2023/12/12 20:51:05;;;;;;;5.40;1.70;;;;;;;11.97;93.28;99051.63;5062464;28;20294;-67
2023/12/12 20:53:35;;;;;;;5.03;1.57;;;;;;;11.88;93.70;99042.97;5056478;28;20204;-71
2023/12/12 20:56:03;;;;;;;4.87;1.90;;;;;;;11.83;93.71;99039.25;5060604;28;20200;-66
2023/12/12 20:58:31;;;;;;;6.77;2.63;;;;;;;11.81;93.58;99035.94;5058360;28;20210;-70
2023/12/12 21:00:58;;;;;;;3.23;1.30;;;;;;;11.80;93.88;99044.94;5065042;28;20245;-69
2023/12/12 21:03:30;;;;;;;6.70;1.60;;;;;;;11.80;93.78;99052.91;5066093;28;20568;-67
2023/12/12 21:05:58;;;;;;;4.83;1.70;;;;;;;11.82;93.96;99058.84;5063505;28;20283;-66
2023/12/12 21:08:26;;;;;;;5.57;1.90;;;;;;;11.80;93.56;99052.91;5064967;28;20551;-66
2023/12/12 21:10:54;;;;;;;2.93;1.40;;;;;;;11.80;93.90;99063.50;5063893;28;20203;-66
2023/12/12 21:13:25;;;;;;;3.47;1.37;;;;;;;11.77;93.71;99061.25;5066013;28;20218;-67
2023/12/12 21:15:54;;;;;;;7.87;1.60;;;;;;;11.73;93.65;99065.25;5058610;28;20703;-65
2023/12/12 21:18:22;;;;;;;4.20;1.30;;;;;;;11.69;94.16;99064.84;5059617;28;20532;-68
2023/12/12 21:20:54;;;;;;;11.17;3.13;;;;;;;11.63;93.96;99071.69;5061840;28;20326;-68
2023/12/12 21:23:22;;;;;;;4.03;2.00;;;;;;;11.50;93.89;99063.63;5058866;28;20248;-68
2023/12/12 21:25:50;;;;;;;4.87;2.63;;;;;;;11.41;94.21;99067.41;5060376;28;20198;-66
2023/12/12 21:28:18;;;;;;;6.17;1.90;;;;;;;11.43;94.19;99068.03;5060824;28;20267;-66
2023/12/12 21:30:46;;;;;;;6.87;2.10;;;;;;;11.41;93.66;99062.09;5061506;28;20224;-66
2023/12/12 21:33:14;;;;;;;6.00;2.03;;;;;;;11.35;94.05;99067.28;5061103;28;20205;-67
2023/12/12 21:35:43;;;;;;;15.17;6.73;;;;;;;11.31;93.77;99072.19;5061615;28;20211;-69
2023/12/12 21:38:13;;;;;;;14.83;6.90;;;;;;;11.17;94.29;99065.88;5063472;28;20211;-65
2023/12/12 21:40:42;;;;;;;8.60;4.50;;;;;;;11.08;95.08;99066.19;5059133;28;20234;-68
2023/12/12 21:43:10;;;;;;;8.37;3.90;;;;;;;11.04;95.36;99059.59;5063597;28;20239;-67
2023/12/12 21:45:38;;;;;;;5.73;3.13;;;;;;;11.00;95.22;99068.91;5065234;28;20691;-65
2023/12/12 21:48:06;;;;;;;5.80;2.53;;;;;;;10.97;95.36;99066.66;5067326;28;20218;-64
2023/12/12 21:50:34;;;;;;;5.07;2.50;;;;;;;10.90;95.32;99062.09;5066487;28;20211;-66
2023/12/12 21:53:02;;;;;;;4.63;1.80;;;;;;;10.86;95.42;99058.16;5067219;28;20299;-70
2023/12/12 21:55:32;;;;;;;6.60;2.57;;;;;;;10.80;95.36;99058.06;5064928;28;20203;-67
2023/12/12 21:58:00;;;;;;;8.13;2.60;;;;;;;10.76;95.80;99062.91;5065948;28;20211;-67
2023/12/12 22:00:27;;;;;;;5.23;2.57;;;;;;;10.74;96.25;99064.91;5064378;28;20227;-68
2023/12/12 22:02:55;;;;;;;6.40;3.03;;;;;;;10.80;96.01;99076.63;5067203;28;20817;-66
2023/12/12 22:05:23;;;;;;;4.87;2.37;;;;;;;10.73;96.66;99079.16;5066153;28;20201;-66
2023/12/12 22:07:51;;;;;;;5.00;2.87;;;;;;;10.80;96.89;99077.44;5062598;28;20210;-64
2023/12/12 22:10:19;;;;;;;4.73;2.60;;;;;;;10.86;96.04;99074.06;5063707;28;20215;-64
2023/12/12 22:12:48;;;;;;;7.17;3.13;;;;;;;10.89;95.66;99076.34;5064188;28;20201;-67
2023/12/12 22:15:16;;;;;;;6.13;2.43;;;;;;;10.79;95.85;99067.03;5062606;28;20685;-70
2023/12/12 22:17:44;;;;;;;4.93;2.50;;;;;;;10.69;96.43;99064.66;5063950;28;20212;-66
2023/12/12 22:20:12;;;;;;;7.17;2.30;;;;;;;10.61;96.80;99064.75;5063088;28;20236;-64
2023/12/12 22:22:40;;;;;;;3.77;2.07;;;;;;;10.63;97.15;99069.88;5063525;28;20717;-68
2023/12/12 22:25:09;;;;;;;6.67;2.30;;;;;;;10.65;96.68;99057.22;5063760;28;20734;-73
2023/12/12 22:27:37;;;;;;;6.20;2.50;;;;;;;10.61;96.71;99062.09;5061446;28;20195;-69
2023/12/12 22:30:08;;;;;;;4.20;2.40;;;;;;;10.64;96.29;99060.91;5061453;28;20268;-69
2023/12/12 22:32:35;;;;;;;3.50;1.93;;;;;;;10.67;96.37;99052.56;5060716;28;20209;-68
2023/12/12 22:35:04;;;;;;;4.70;1.63;;;;;;;10.72;95.70;99059.00;5065014;28;20322;-66
2023/12/12 22:37:32;;;;;;;2.53;1.07;;;;;;;10.77;95.14;99059.25;5062270;28;20231;-69
2023/12/12 22:40:01;;;;;;;4.07;1.03;;;;;;;10.80;94.65;99066.84;5062102;28;20680;-70
2023/12/12 22:42:29;;;;;;;4.00;1.03;;;;;;;10.82;94.20;99074.59;5062465;28;20230;-70
2023/12/12 22:44:58;;;;;;;5.63;1.10;;;;;;;10.87;94.04;99080.19;5062963;28;20760;-69
2023/12/12 22:47:27;;;;;;;4.73;1.20;;;;;;;10.92;94.19;99081.28;5062063;28;20206;-71
2023/12/12 22:49:55;;;;;;;6.00;2.13;;;;;;;11.03;94.08;99081.81;5063221;28;20211;-68
2023/12/12 22:52:22;;;;;;;3.77;1.27;;;;;;;11.15;93.62;99080.34;5063510;28;20207;-65
2023/12/12 22:54:50;;;;;;;4.07;1.10;;;;;;;11.21;93.03;99075.13;5062126;28;20211;-70
2023/12/12 22:57:19;;;;;;;5.47;1.00;;;;;;;11.32;92.56;99082.59;5063060;28;20738;-68
2023/12/12 22:59:46;;;;;;;4.13;0.90;;;;;;;11.39;92.24;99085.31;5063281;28;20233;-68
2023/12/12 23:02:14;;;;;;;2.30;0.87;;;;;;;11.42;91.54;99089.44;5064570;28;20293;-69
2023/12/12 23:04:44;;;;;;;5.57;1.23;;;;;;;11.43;91.22;99085.78;5064304;28;20213;-71
2023/12/12 23:07:12;;;;;;;6.53;1.10;;;;;;;11.43;91.06;99091.94;5061490;28;20207;-70
2023/12/12 23:09:40;;;;;;;5.00;0.90;;;;;;;11.41;90.97;99087.81;5062068;28;20285;-69
2023/12/12 23:12:08;;;;;;;6.53;1.20;;;;;;;11.45;90.80;99081.09;5062909;28;20338;-69
2023/12/12 23:14:36;;;;;;;3.77;0.80;;;;;;;11.47;90.51;99077.25;5062034;28;20597;-69
2023/12/12 23:17:06;;;;;;;5.67;0.80;;;;;;;11.45;90.28;99075.78;5061918;28;20218;-70
2023/12/12 23:19:34;;;;;;;4.07;1.30;;;;;;;11.47;90.30;99071.94;5058893;28;20845;-73
2023/12/12 23:22:04;;;;;;;5.63;1.27;;;;;;;11.43;90.25;99075.19;5063071;28;20234;-70
2023/12/12 23:24:33;;;;;;;7.97;1.23;;;;;;;11.44;90.25;99071.47;5062269;28;20620;-70
2023/12/12 23:27:01;;;;;;;3.90;1.17;;;;;;;11.45;89.93;99075.78;5062146;28;20238;-70
2023/12/12 23:29:29;;;;;;;6.43;1.17;;;;;;;11.51;89.89;99067.09;5062578;28;20654;-69
2023/12/12 23:31:57;;;;;;;9.70;1.10;;;;;;;11.53;89.75;99059.75;5063198;28;20262;-69
2023/12/12 23:34:25;;;;;;;5.57;1.17;;;;;;;11.55;89.71;99053.25;5063537;28;20245;-68
2023/12/12 23:36:53;;;;;;;6.50;1.27;;;;;;;11.60;89.43;99061.47;5061709;28;20209;-67
2023/12/12 23:39:23;;;;;;;4.87;1.10;;;;;;;11.67;88.97;99058.88;5063383;28;20207;-67
2023/12/12 23:41:51;;;;;;;7.40;1.20;;;;;;;11.72;88.89;99060.97;5062548;28;20254;-70
2023/12/12 23:44:19;;;;;;;5.77;1.07;;;;;;;11.73;88.69;99051.97;5062078;28;20203;-68
2023/12/12 23:46:51;;;;;;;8.27;1.50;;;;;;;11.64;88.36;99051.28;5064185;28;20196;-71
2023/12/12 23:49:19;;;;;;;4.93;1.17;;;;;;;11.50;88.92;99053.00;5062696;28;20247;-70
2023/12/12 23:51:47;;;;;;;9.40;1.67;;;;;;;11.39;89.68;99052.66;5062062;28;20868;-69
2023/12/12 23:54:16;;;;;;;7.53;1.23;;;;;;;11.28;90.41;99056.63;5063458;28;20208;-70
2023/12/12 23:56:47;;;;;;;6.60;1.67;;;;;;;11.21;90.98;99055.72;5060845;28;20222;-70
2023/12/12 23:59:16;;;;;;;7.90;1.93;;;;;;;11.18;91.26;99045.47;5062255;28;20802;-69
